createdAt,value
2023-01-10T00:00:35.310Z,75.96
2023-01-10T00:05:38.708Z,76.26
2023-01-10T00:10:41.619Z,74.50
2023-01-10T00:15:43.900Z,76.31
2023-01-10T00:20:47.334Z,76.39
2023-01-10T00:25:49.582Z,75.88
2023-01-10T00:31:06.652Z,75.38
2023-01-10T00:36:10.184Z,75.95
2023-01-10T00:41:32.320Z,74.79
2023-01-10T00:46:34.532Z,74.31
2023-01-10T00:51:36.585Z,74.31
2023-01-10T00:56:39.031Z,74.92
2023-01-10T01:01:41.572Z,74.03
2023-01-10T01:06:44.660Z,77.39
2023-01-10T01:11:46.939Z,75.11
2023-01-10T01:16:49.096Z,75.85
2023-01-10T01:21:51.197Z,74.90
2023-01-10T01:26:54.394Z,73.19
2023-01-10T01:31:57.148Z,74.70
2023-01-10T01:36:59.303Z,75.26
2023-01-10T01:42:01.957Z,73.21
2023-01-10T01:47:12.585Z,74.25
2023-01-10T01:52:23.075Z,74.51
2023-01-10T01:57:26.916Z,72.74
2023-01-10T02:02:31.985Z,73.83
2023-01-10T02:07:37.809Z,74.70
2023-01-10T02:12:40.425Z,73.63
2023-01-10T02:17:42.569Z,75.03
2023-01-10T02:22:57.725Z,73.13
2023-01-10T02:28:21.746Z,72.67
2023-01-10T02:33:29.852Z,75.34
2023-01-10T02:38:58.812Z,75.19
2023-01-10T02:44:29.850Z,73.52
2023-01-10T02:49:41.863Z,74.42
2023-01-10T02:54:44.359Z,72.97
2023-01-10T03:00:00.292Z,74.29
2023-01-10T03:05:22.377Z,73.51
2023-01-10T03:10:30.600Z,72.96
2023-01-10T03:15:35.699Z,72.26
2023-01-10T03:20:39.036Z,72.97
2023-01-10T03:25:41.675Z,73.33
2023-01-10T03:30:51.338Z,72.75
2023-01-10T03:36:05.526Z,72.59
2023-01-10T03:41:08.449Z,72.91
2023-01-10T03:46:21.828Z,72.82
2023-01-10T03:51:24.232Z,73.19
2023-01-10T03:56:26.325Z,72.21
2023-01-10T04:01:28.515Z,72.78
2023-01-10T04:06:31.008Z,71.86
2023-01-10T04:11:33.155Z,70.67
2023-01-10T04:16:35.264Z,71.75
2023-01-10T04:21:37.428Z,72.02
2023-01-10T04:26:39.515Z,72.79
2023-01-10T04:31:41.752Z,71.79
2023-01-10T04:36:44.143Z,72.83
2023-01-10T04:41:46.284Z,71.37
2023-01-10T04:46:48.396Z,70.14
2023-01-10T04:51:50.541Z,71.25
2023-01-10T04:56:52.608Z,72.22
2023-01-10T05:01:54.774Z,71.98
2023-01-10T05:06:56.903Z,72.86
2023-01-10T05:11:58.982Z,72.39
2023-01-10T05:17:01.124Z,71.27
2023-01-10T05:22:03.512Z,73.43
2023-01-10T05:27:05.827Z,71.57
2023-01-10T05:32:08.051Z,72.28
2023-01-10T05:37:10.623Z,71.34
2023-01-10T05:42:12.844Z,72.38
2023-01-10T05:47:14.993Z,72.39
2023-01-10T05:52:18.282Z,71.37
2023-01-10T05:57:22.082Z,70.26
2023-01-10T06:02:26.400Z,71.05
2023-01-10T06:07:28.743Z,70.22
2023-01-10T06:12:31.983Z,71.85
2023-01-10T06:17:34.341Z,71.39
2023-01-10T06:22:36.605Z,70.73
2023-01-10T06:27:43.085Z,70.63
2023-01-10T06:32:45.193Z,70.79
2023-01-10T06:37:47.483Z,69.92
2023-01-10T06:42:50.405Z,72.78
2023-01-10T06:47:52.543Z,73.70
2023-01-10T06:52:58.760Z,71.96
2023-01-10T06:58:04.887Z,72.64
2023-01-10T07:03:07.981Z,72.95
2023-01-10T07:08:10.295Z,71.90
2023-01-10T07:13:12.649Z,71.40
2023-01-10T07:18:14.911Z,72.51
2023-01-10T07:23:17.053Z,73.01
2023-01-10T07:28:19.312Z,72.90
2023-01-10T07:33:21.603Z,72.15
2023-01-10T07:38:24.163Z,71.08
2023-01-10T07:43:26.375Z,73.74
2023-01-10T07:48:28.850Z,71.89
2023-01-10T07:53:31.404Z,71.05
2023-01-10T07:58:33.539Z,68.22
2023-01-10T08:03:35.820Z,69.33
2023-01-10T08:08:38.959Z,70.86
2023-01-10T08:13:41.164Z,69.25
2023-01-10T08:18:43.547Z,69.71
2023-01-10T08:23:45.804Z,69.98
2023-01-10T08:28:47.955Z,71.28
2023-01-10T08:33:51.115Z,70.92
2023-01-10T08:38:55.547Z,71.11
2023-01-10T08:43:57.700Z,70.91
2023-01-10T08:48:59.863Z,71.44
2023-01-10T08:54:02.046Z,73.58
2023-01-10T08:59:04.130Z,72.17
2023-01-10T09:04:06.435Z,72.25
2023-01-10T09:09:08.785Z,72.32
2023-01-10T09:14:10.940Z,72.09
2023-01-10T09:19:13.067Z,71.31
2023-01-10T09:24:15.203Z,70.47
2023-01-10T09:29:17.453Z,71.25
2023-01-10T09:34:19.747Z,70.53
2023-01-10T09:39:21.848Z,71.96
2023-01-10T09:44:52.860Z,69.75
2023-01-10T09:50:15.542Z,71.20
2023-01-10T09:55:24.003Z,69.87
2023-01-10T10:00:58.332Z,69.54
2023-01-10T10:06:11.184Z,69.13
2023-01-10T10:11:26.260Z,68.32
2023-01-10T10:17:03.958Z,70.99
2023-01-10T10:22:41.526Z,68.26
2023-01-10T10:28:17.475Z,68.67
2023-01-10T10:33:34.579Z,68.28
2023-01-10T10:38:39.575Z,70.09
2023-01-10T10:43:42.195Z,67.65
2023-01-10T10:48:51.008Z,65.87
2023-01-10T10:53:54.923Z,65.92
2023-01-10T10:58:59.283Z,64.82
2023-01-10T11:04:06.581Z,65.98
2023-01-10T11:09:08.733Z,64.73
2023-01-10T11:14:12.895Z,66.94
2023-01-10T11:19:18.798Z,67.17
2023-01-10T11:24:33.080Z,67.68
2023-01-10T11:29:42.763Z,64.86
2023-01-10T11:34:59.226Z,65.82
2023-01-10T11:40:10.200Z,64.51
2023-01-10T11:45:18.257Z,63.67
2023-01-10T11:50:28.521Z,64.67
2023-01-10T11:55:32.909Z,66.20
2023-01-10T12:00:41.845Z,64.72
2023-01-10T12:05:57.296Z,63.81
2023-01-10T12:11:05.313Z,64.42
2023-01-10T12:16:22.261Z,64.30
2023-01-10T12:21:37.253Z,64.65
2023-01-10T12:26:39.616Z,65.33
2023-01-10T12:31:42.027Z,64.16
2023-01-10T12:36:53.956Z,64.34
2023-01-10T12:42:29.558Z,62.91
2023-01-10T12:47:50.389Z,63.30
2023-01-10T12:53:19.783Z,63.71
2023-01-10T12:58:26.303Z,63.07
2023-01-10T13:03:32.451Z,62.36
2023-01-10T13:08:37.492Z,61.57
2023-01-10T13:13:45.098Z,61.72
2023-01-10T13:19:02.395Z,63.07
2023-01-10T13:24:20.887Z,62.98
2023-01-10T13:29:29.731Z,61.60
2023-01-10T13:34:35.966Z,61.12
2023-01-10T13:39:40.330Z,60.95
2023-01-10T13:45:00.945Z,60.29
2023-01-10T13:50:23.152Z,59.28
2023-01-10T13:55:28.588Z,58.83
2023-01-10T14:00:52.569Z,59.81
2023-01-10T14:05:54.756Z,58.77
2023-01-10T14:11:11.117Z,58.50
2023-01-10T14:16:36.619Z,58.94
2023-01-10T14:21:45.600Z,58.66
2023-01-10T14:26:48.295Z,58.49
2023-01-10T14:31:52.929Z,59.11
2023-01-10T14:37:00.973Z,58.34
2023-01-10T14:42:07.295Z,58.75
2023-01-10T14:47:26.413Z,58.79
2023-01-10T14:52:29.682Z,58.12
2023-01-10T14:57:32.088Z,59.83
2023-01-10T15:02:38.448Z,59.86
2023-01-10T15:07:40.829Z,58.53
2023-01-10T15:12:44.804Z,59.53
2023-01-10T15:17:47.506Z,59.41
2023-01-10T15:23:01.431Z,59.15
2023-01-10T15:28:06.225Z,59.95
2023-01-10T15:33:29.124Z,59.47
2023-01-10T15:38:34.672Z,59.05
2023-01-10T15:43:37.359Z,60.19
2023-01-10T15:48:40.972Z,60.50
2023-01-10T15:53:51.650Z,59.84
2023-01-10T15:58:54.127Z,60.05
2023-01-10T16:04:04.644Z,59.95
2023-01-10T16:09:08.651Z,60.27
2023-01-10T16:14:49.963Z,60.75
2023-01-10T16:25:51.207Z,60.23
2023-01-10T16:30:54.477Z,60.30
2023-01-10T16:35:59.371Z,61.21
2023-01-10T16:41:21.816Z,61.87
2023-01-10T16:46:24.517Z,61.75
2023-01-10T16:51:28.678Z,62.74
2023-01-10T16:56:31.361Z,63.95
2023-01-10T17:01:46.764Z,63.97
2023-01-10T17:06:49.547Z,65.23
2023-01-10T17:11:57.790Z,68.50
2023-01-10T17:16:59.901Z,70.71
2023-01-10T17:22:02.013Z,72.25
2023-01-10T17:27:04.322Z,72.86
2023-01-10T17:32:08.443Z,73.95
2023-01-10T17:37:10.609Z,74.39
2023-01-10T17:42:12.669Z,76.00
2023-01-10T17:47:14.991Z,76.72
2023-01-10T17:52:17.059Z,77.15
2023-01-10T17:57:19.180Z,78.86
2023-01-10T18:02:21.615Z,78.40
2023-01-10T18:07:24.044Z,77.19
2023-01-10T18:12:26.201Z,75.50
2023-01-10T18:17:28.471Z,75.17
2023-01-10T18:22:49.149Z,76.67
2023-01-10T18:27:52.321Z,75.62
2023-01-10T18:32:54.892Z,78.35
2023-01-10T18:37:57.519Z,79.34
2023-01-10T18:42:59.642Z,78.70
2023-01-10T18:48:02.295Z,78.81
2023-01-10T18:53:04.851Z,77.83
2023-01-10T18:58:09.350Z,78.47
2023-01-10T19:03:11.571Z,78.82
2023-01-10T19:08:14.168Z,77.73
2023-01-10T19:13:17.324Z,77.90
2023-01-10T19:18:19.461Z,78.12
2023-01-10T19:23:21.546Z,78.80
2023-01-10T19:28:23.792Z,77.66
2023-01-10T19:33:25.921Z,77.50
2023-01-10T19:38:28.118Z,78.60
2023-01-10T19:43:30.677Z,77.99
2023-01-10T19:48:37.962Z,77.62
2023-01-10T19:53:45.413Z,76.92
2023-01-10T19:58:48.406Z,77.55
2023-01-10T20:03:50.837Z,78.42
2023-01-10T20:08:56.337Z,77.87
2023-01-10T20:13:58.702Z,77.06
2023-01-10T20:19:05.589Z,75.82
2023-01-10T20:24:13.005Z,76.46
2023-01-10T20:29:16.257Z,76.76
2023-01-10T20:34:19.977Z,75.95
2023-01-10T20:39:22.729Z,76.87
2023-01-10T20:44:26.353Z,77.08
2023-01-10T20:49:28.584Z,76.42
2023-01-10T20:54:30.999Z,77.02
2023-01-10T20:59:33.678Z,76.98
2023-01-10T21:04:36.049Z,77.22
2023-01-10T21:09:38.196Z,75.72
2023-01-10T21:14:40.318Z,76.09
2023-01-10T21:19:42.400Z,76.08
2023-01-10T21:24:44.765Z,77.01
2023-01-10T21:29:46.963Z,77.39
2023-01-10T21:34:49.482Z,77.47
2023-01-10T21:39:51.882Z,77.79
2023-01-10T21:44:54.377Z,75.42
2023-01-10T21:49:56.473Z,75.62
2023-01-10T21:54:58.786Z,75.84
2023-01-10T22:00:01.098Z,76.12
2023-01-10T22:05:03.195Z,76.05
2023-01-10T22:10:07.132Z,76.18
2023-01-10T22:15:10.354Z,75.55
2023-01-10T22:20:12.818Z,76.61
2023-01-10T22:25:15.114Z,76.46
2023-01-10T22:30:17.736Z,75.68
2023-01-10T22:35:19.880Z,77.15
2023-01-10T22:40:23.040Z,77.61
2023-01-10T22:45:25.234Z,77.12
2023-01-10T22:50:27.528Z,77.62
2023-01-10T22:55:29.655Z,77.33
2023-01-10T23:00:32.640Z,76.40
2023-01-10T23:05:34.771Z,75.27
2023-01-10T23:10:38.878Z,77.00
2023-01-10T23:15:41.117Z,76.57
2023-01-10T23:20:43.391Z,78.04
2023-01-10T23:25:45.600Z,78.38
2023-01-10T23:30:48.944Z,79.28
2023-01-10T23:35:51.148Z,78.95
2023-01-10T23:40:53.435Z,78.20
2023-01-10T23:45:55.816Z,79.18
2023-01-10T23:50:59.107Z,78.98
2023-01-10T23:56:09.265Z,76.79
